Austerlitz, New York
Current Conditions -  °F | °C
As of 11:54 PM on Monday 22 Dec 2014 (Local Time) from KPSF Reporting Station
Overcast Overcast  
Wind Chill: -1°   Ceiling: 400
Heat Index:   Visibility: 7mi
Dew Point:   Wind: 5mph
Humidity: 96%   Direction: 110°ESE
Pressure: 30.18"   Gusts: NA
Location:  42.31°N, 73.47°W
Report Text: KPSF 230454Z AUTO 11004KT 7SM OVC004 02/01 A3018 RMK AO2 SLP229 T00170011 400221022
Loading
Personal Weather Stations






























Interactive Weather Map New forecast layout! Learn more

10-Day Weather Forecast

Advertisements
Track Severe Weather on mobile